Aérodrome :
LOGIN :

S'inscrire | Disclaimer

   EN    FR    IT 

 










Légende :    VFR   VFR Marginal   IFR   IFR Intensif   IFR Très Intensif
Visi : 
Plafond : 
>= 8 km
>= 3000ft
5 à 8 km
1000 à 3000 ft
1500m à 5 km
500 à 1000 ft
800 à 1500m
200 à 500 ft
< 800m
< 200 ft
Symboles :   Orages  Brouillard  Fortes neiges  Fortes précipitations  Vent > 20 kt
SIGMETs :   Divers  Orages  Givrage  Turbulence  Onde Orograph.  Cendres Volcan.







- Altitude de l'aérodrome : 1822 ft


ETSL - Lechfeld AB

DERNIER METAR :
  • 251720Z AUTO 34008KT 4100 // ////// 08/06 Q1007 ///

METARs EXPIRÉS :
  • 251620Z 25005KT 8000 RA SCT010 SCT020 OVC040 09/08 Q1007 BLU
  • 251520Z 30005KT 9999 -RA SCT015 OVC040 10/08 Q1007 RERA BLU

TAF AMD TAF ETSL
Valide du 25 à 14h jusqu'au 25 à 23h UTC


251416Z 2514/2523 27010KT 9999 NSW FEW020 BKN060 BKN090
TEMPO 2514/2518 28015KT 7000 RA SCT020TCU BKN040
BECMG 2518/2520 01007KT 5000 RA SCT010 BKN015
TEMPO 2520/2523 03010KT 3000 RA BKN005 OVC010 CANCEL 1420
Pas de NOTAMs connus pour ce terrain.



MET'MAP, la Météo Aéronautique d'un coup d'oeil ! - Copyright ORBIFLY Décembre 2007 - Disclaimer

ORBIFLY MET'MAP TEAM :

Programmation & Développement : Alexandra Zaïnal
Conception & Développement : Baudouin d'Aumeries
Co-Programmation & Développement : Marc-Olivier Méhu
Soutien technique & logistique : Manuel Goepfert

Contact : metmap@orbifly.com




SOURCES & CREDITS :

   NOAA